createdAt,value
2022-12-14T00:01:28.014Z,90.21
2022-12-14T00:03:58.753Z,90.01
2022-12-14T00:06:29.990Z,90.05
2022-12-14T00:09:01.594Z,90.05
2022-12-14T00:11:31.801Z,89.97
2022-12-14T00:14:05.994Z,89.98
2022-12-14T00:16:36.962Z,90.03
2022-12-14T00:19:09.983Z,90.02
2022-12-14T00:21:39.737Z,89.89
2022-12-14T00:24:10.530Z,90.01
2022-12-14T00:26:40.417Z,89.95
2022-12-14T00:29:12.829Z,89.75
2022-12-14T00:31:42.640Z,89.82
2022-12-14T00:34:12.422Z,89.81
2022-12-14T00:36:42.155Z,89.78
2022-12-14T00:39:11.900Z,89.72
2022-12-14T00:41:41.620Z,89.67
2022-12-14T00:44:14.000Z,89.57
2022-12-14T00:46:43.769Z,89.59
2022-12-14T00:49:14.152Z,89.65
2022-12-14T00:51:44.004Z,89.58
2022-12-14T00:54:13.840Z,89.58
2022-12-14T00:56:43.748Z,89.53
2022-12-14T00:59:16.145Z,89.45
2022-12-14T01:01:45.987Z,89.44
2022-12-14T01:04:23.253Z,89.31
2022-12-14T01:06:54.654Z,89.40
2022-12-14T01:09:26.268Z,89.31
2022-12-14T01:11:56.156Z,89.34
2022-12-14T01:14:28.460Z,89.20
2022-12-14T01:16:58.296Z,89.18
2022-12-14T01:19:27.994Z,89.12
2022-12-14T01:21:57.712Z,89.14
2022-12-14T01:24:27.704Z,89.12
2022-12-14T01:26:57.443Z,89.13
2022-12-14T01:29:29.866Z,89.06
2022-12-14T01:31:59.615Z,88.93
2022-12-14T01:34:29.393Z,88.91
2022-12-14T01:36:59.117Z,88.96
2022-12-14T01:39:28.923Z,88.87
2022-12-14T01:41:59.395Z,88.95
2022-12-14T01:44:58.026Z,88.83
2022-12-14T01:47:37.105Z,88.83
2022-12-14T01:50:17.132Z,88.75
2022-12-14T01:52:49.875Z,88.80
2022-12-14T01:55:23.480Z,88.70
2022-12-14T01:57:57.595Z,88.67
2022-12-14T02:00:30.187Z,88.68
2022-12-14T02:03:02.844Z,88.65
2022-12-14T02:05:35.960Z,88.64
2022-12-14T02:08:07.149Z,88.53
2022-12-14T02:10:37.233Z,88.52
2022-12-14T02:13:14.757Z,88.35
2022-12-14T02:15:47.423Z,88.43
2022-12-14T02:18:23.287Z,88.46
2022-12-14T02:21:17.288Z,88.46
2022-12-14T02:24:31.933Z,88.42
2022-12-14T02:27:12.121Z,88.19
2022-12-14T02:30:06.746Z,88.32
2022-12-14T02:32:52.300Z,88.14
2022-12-14T02:35:33.397Z,88.19
2022-12-14T02:38:16.787Z,88.21
2022-12-14T02:40:57.961Z,87.99
2022-12-14T02:43:34.987Z,88.12
2022-12-14T02:46:19.593Z,88.07
2022-12-14T02:48:57.650Z,88.05
2022-12-14T02:51:35.821Z,87.94
2022-12-14T02:54:11.147Z,87.95
2022-12-14T02:56:47.112Z,87.99
2022-12-14T02:59:19.318Z,87.88
2022-12-14T03:01:54.528Z,87.96
2022-12-14T03:04:24.564Z,87.93
2022-12-14T03:07:02.789Z,88.01
2022-12-14T03:09:34.318Z,87.86
2022-12-14T03:12:10.211Z,87.85
2022-12-14T03:14:45.872Z,87.80
2022-12-14T03:17:22.020Z,87.82
2022-12-14T03:19:56.353Z,87.82
2022-12-14T03:22:31.079Z,87.83
2022-12-14T03:25:04.606Z,87.86
2022-12-14T03:27:38.561Z,87.70
2022-12-14T03:30:13.590Z,87.75
2022-12-14T03:32:50.537Z,87.82
2022-12-14T03:35:24.137Z,87.84
2022-12-14T03:38:00.182Z,87.79
2022-12-14T03:40:36.774Z,87.78
2022-12-14T03:43:18.403Z,87.84
2022-12-14T03:45:54.910Z,87.73
2022-12-14T03:48:34.685Z,87.74
2022-12-14T03:51:11.753Z,87.83
2022-12-14T03:53:47.849Z,87.70
2022-12-14T03:56:22.835Z,87.67
2022-12-14T03:59:03.889Z,87.72
2022-12-14T04:01:43.518Z,87.74
2022-12-14T04:04:22.324Z,87.67
2022-12-14T04:06:58.399Z,87.63
2022-12-14T04:09:34.189Z,87.69
2022-12-14T04:12:21.174Z,87.60
2022-12-14T04:15:07.839Z,87.58
2022-12-14T04:17:53.638Z,87.53
2022-12-14T04:20:30.940Z,87.51
2022-12-14T04:23:06.123Z,87.61
2022-12-14T04:25:52.553Z,87.55
2022-12-14T04:28:39.011Z,87.56
2022-12-14T04:31:12.749Z,87.43
2022-12-14T04:33:50.946Z,87.41
2022-12-14T04:36:28.207Z,87.45
2022-12-14T04:39:03.361Z,87.52
2022-12-14T04:41:38.150Z,87.46
2022-12-14T04:44:14.268Z,87.42
2022-12-14T04:46:44.679Z,87.38
2022-12-14T04:49:22.305Z,87.29
2022-12-14T04:52:05.200Z,87.35
2022-12-14T04:54:40.593Z,87.34
2022-12-14T04:57:18.918Z,87.38
2022-12-14T04:59:50.151Z,87.29
2022-12-14T05:02:25.599Z,87.27
2022-12-14T05:05:05.476Z,87.24
2022-12-14T05:07:52.757Z,87.11
2022-12-14T05:10:28.929Z,87.17
2022-12-14T05:13:05.211Z,87.26
2022-12-14T05:15:39.173Z,87.17
2022-12-14T05:18:10.276Z,87.12
2022-12-14T05:20:40.049Z,87.23
2022-12-14T05:23:12.420Z,87.11
2022-12-14T05:25:42.194Z,87.17
2022-12-14T05:28:13.175Z,87.16
2022-12-14T05:30:43.028Z,87.14
2022-12-14T05:33:21.429Z,87.08
2022-12-14T05:35:51.332Z,87.08
2022-12-14T05:38:23.635Z,87.01
2022-12-14T05:40:53.371Z,86.98
2022-12-14T05:43:23.249Z,87.12
2022-12-14T05:45:53.150Z,87.13
2022-12-14T05:48:22.944Z,87.19
2022-12-14T05:50:52.681Z,87.02
2022-12-14T05:53:25.370Z,87.05
2022-12-14T05:55:56.075Z,87.09
2022-12-14T05:58:25.897Z,87.01
2022-12-14T06:00:55.687Z,87.02
2022-12-14T06:03:26.164Z,87.11
2022-12-14T06:05:56.137Z,87.00
2022-12-14T06:08:28.448Z,87.04
2022-12-14T06:11:04.981Z,86.89
2022-12-14T06:13:34.702Z,86.88
2022-12-14T06:16:15.646Z,87.00
2022-12-14T06:18:47.295Z,86.90
2022-12-14T06:21:20.424Z,86.90
2022-12-14T06:23:52.750Z,86.97
2022-12-14T06:26:22.815Z,86.84
2022-12-14T06:28:52.906Z,86.82
2022-12-14T06:31:25.091Z,86.91
2022-12-14T06:33:56.545Z,86.80
2022-12-14T06:36:28.133Z,86.95
2022-12-14T06:39:04.464Z,86.99
2022-12-14T06:41:34.592Z,86.81
2022-12-14T06:44:08.360Z,86.89
2022-12-14T06:46:38.985Z,86.91
2022-12-14T06:49:10.415Z,86.76
2022-12-14T06:51:42.369Z,86.89
2022-12-14T06:54:15.852Z,86.90
2022-12-14T06:56:47.280Z,86.85
2022-12-14T06:59:18.060Z,86.76
2022-12-14T07:01:49.834Z,86.72
2022-12-14T07:04:21.631Z,86.81
2022-12-14T07:06:51.643Z,86.82
2022-12-14T07:09:24.004Z,86.92
2022-12-14T07:11:53.998Z,86.66
2022-12-14T07:14:23.709Z,86.76
2022-12-14T07:16:53.400Z,86.73
2022-12-14T07:19:23.209Z,86.74
2022-12-14T07:21:53.041Z,86.79
2022-12-14T07:24:25.397Z,86.67
2022-12-14T07:26:56.484Z,86.80
2022-12-14T07:29:31.095Z,86.69
2022-12-14T07:32:03.963Z,86.77
2022-12-14T07:34:33.816Z,86.72
2022-12-14T07:37:03.578Z,86.74
2022-12-14T07:39:35.911Z,86.79
2022-12-14T07:42:05.623Z,86.66
2022-12-14T07:44:35.354Z,86.62
2022-12-14T07:47:05.102Z,86.74
2022-12-14T07:49:34.853Z,86.60
2022-12-14T07:52:04.552Z,86.65
2022-12-14T07:54:36.929Z,86.65
2022-12-14T07:57:09.607Z,86.50
2022-12-14T07:59:39.352Z,86.61
2022-12-14T08:02:09.321Z,86.72
2022-12-14T08:04:39.348Z,86.69
2022-12-14T08:07:09.198Z,86.62
2022-12-14T08:09:41.718Z,86.59
2022-12-14T08:12:11.468Z,86.58
2022-12-14T08:14:41.235Z,86.71
2022-12-14T08:17:10.964Z,86.66
2022-12-14T08:19:40.791Z,86.63
2022-12-14T08:22:10.773Z,86.68
2022-12-14T08:24:43.252Z,86.64
2022-12-14T08:27:19.372Z,86.79
2022-12-14T08:29:49.167Z,86.92
2022-12-14T08:32:19.448Z,86.91
2022-12-14T08:34:49.686Z,86.93
2022-12-14T08:37:19.574Z,87.05
2022-12-14T08:39:52.068Z,87.16
2022-12-14T08:42:22.072Z,87.20
2022-12-14T08:44:51.881Z,87.39
2022-12-14T08:47:21.745Z,87.37
2022-12-14T08:49:51.741Z,87.39
2022-12-14T08:52:21.592Z,87.42
2022-12-14T08:54:54.010Z,87.43
2022-12-14T08:57:23.818Z,87.56
2022-12-14T09:00:03.319Z,87.51
2022-12-14T09:02:33.466Z,87.50
2022-12-14T09:05:03.411Z,87.54
2022-12-14T09:07:34.150Z,87.47
2022-12-14T09:10:08.101Z,87.52
2022-12-14T09:12:37.869Z,87.55
2022-12-14T09:15:08.547Z,87.40
2022-12-14T09:17:38.304Z,87.50
2022-12-14T09:20:08.861Z,87.43
2022-12-14T09:22:38.800Z,87.43
2022-12-14T09:25:12.051Z,87.55
2022-12-14T09:27:41.872Z,87.41
2022-12-14T09:30:12.499Z,87.49
2022-12-14T09:32:44.108Z,87.46
2022-12-14T09:35:20.577Z,87.52
2022-12-14T09:37:50.370Z,87.55
2022-12-14T09:40:27.571Z,87.58
2022-12-14T09:43:03.677Z,87.68
2022-12-14T09:45:36.488Z,87.76
2022-12-14T09:48:16.240Z,87.73
2022-12-14T09:50:49.798Z,87.95
2022-12-14T09:53:21.489Z,88.12
2022-12-14T09:55:56.515Z,88.28
2022-12-14T09:58:30.373Z,88.44
2022-12-14T10:01:11.353Z,88.48
2022-12-14T10:03:57.568Z,88.57
2022-12-14T10:06:40.684Z,88.81
2022-12-14T10:09:19.387Z,88.88
2022-12-14T10:12:03.122Z,89.05
2022-12-14T10:14:50.283Z,89.01
2022-12-14T10:17:30.554Z,89.18
2022-12-14T10:20:05.575Z,89.32
2022-12-14T10:22:42.053Z,89.35
2022-12-14T10:25:16.580Z,89.45
2022-12-14T10:28:10.321Z,89.47
2022-12-14T10:30:40.618Z,89.58
2022-12-14T10:33:19.972Z,89.62
2022-12-14T10:35:54.362Z,89.68
2022-12-14T10:38:30.298Z,89.81
2022-12-14T10:41:07.996Z,89.86
2022-12-14T10:43:50.279Z,89.96
2022-12-14T10:46:30.614Z,90.05
2022-12-14T10:49:09.198Z,90.04
2022-12-14T10:51:42.617Z,90.02
2022-12-14T10:54:23.949Z,90.30
2022-12-14T10:56:53.824Z,90.32
2022-12-14T10:59:41.423Z,90.31
2022-12-14T11:02:17.575Z,90.46
2022-12-14T11:04:52.296Z,90.57
2022-12-14T11:07:24.523Z,90.58
2022-12-14T11:09:54.904Z,90.86
2022-12-14T11:12:28.197Z,90.86
2022-12-14T11:15:03.251Z,90.99
2022-12-14T11:17:36.616Z,91.08
2022-12-14T11:20:19.278Z,91.10
2022-12-14T11:22:51.073Z,91.25
2022-12-14T11:25:37.813Z,91.33
2022-12-14T11:28:21.133Z,91.52
2022-12-14T11:31:01.569Z,91.63
2022-12-14T11:33:37.806Z,91.65
2022-12-14T11:36:09.034Z,91.79
2022-12-14T11:38:39.497Z,91.80
2022-12-14T11:41:12.039Z,91.94
2022-12-14T11:43:42.566Z,92.05
2022-12-14T11:46:15.423Z,92.15
2022-12-14T11:48:51.578Z,92.11
2022-12-14T11:51:21.310Z,92.28
2022-12-14T11:54:04.768Z,92.35
2022-12-14T11:56:34.524Z,92.44
2022-12-14T11:59:04.364Z,92.60
2022-12-14T12:01:37.019Z,92.53
2022-12-14T12:04:18.904Z,92.64
2022-12-14T12:06:48.801Z,92.58
2022-12-14T12:09:30.273Z,92.69
2022-12-14T12:12:00.272Z,92.74
2022-12-14T12:14:36.544Z,92.77
2022-12-14T12:17:20.968Z,92.84
2022-12-14T12:19:54.049Z,92.79
2022-12-14T12:22:25.688Z,92.85
2022-12-14T12:25:25.067Z,92.99
2022-12-14T12:28:02.108Z,92.92
2022-12-14T12:30:37.444Z,92.98
2022-12-14T12:33:21.262Z,93.02
2022-12-14T12:35:55.731Z,92.93
2022-12-14T12:38:40.588Z,93.07
2022-12-14T12:41:20.704Z,93.07
2022-12-14T12:43:54.959Z,92.98
2022-12-14T12:46:29.980Z,93.07
2022-12-14T12:49:07.683Z,93.04
2022-12-14T12:51:45.514Z,93.04
2022-12-14T12:54:21.877Z,93.02
2022-12-14T12:56:55.882Z,92.94
2022-12-14T12:59:34.052Z,92.97
2022-12-14T13:02:11.666Z,92.97
2022-12-14T13:04:52.166Z,92.92
2022-12-14T13:07:31.192Z,92.96
2022-12-14T13:10:06.145Z,92.93
2022-12-14T13:12:39.739Z,92.95
2022-12-14T13:15:19.268Z,92.95
2022-12-14T13:17:53.808Z,92.82
2022-12-14T13:20:30.206Z,92.85
2022-12-14T13:23:15.270Z,92.74
2022-12-14T13:25:57.838Z,92.80
2022-12-14T13:28:53.767Z,92.87
2022-12-14T13:31:36.582Z,92.71
2022-12-14T13:34:22.475Z,92.76
2022-12-14T13:37:27.440Z,92.73
2022-12-14T13:40:23.316Z,92.64
2022-12-14T13:43:02.698Z,92.67
2022-12-14T13:45:36.221Z,92.75
2022-12-14T13:48:10.902Z,92.71
2022-12-14T13:50:55.988Z,92.63
2022-12-14T13:53:37.671Z,92.70
2022-12-14T13:56:07.887Z,92.60
2022-12-14T13:58:42.425Z,92.66
2022-12-14T14:01:16.437Z,92.63
2022-12-14T14:03:56.712Z,92.70
2022-12-14T14:06:41.920Z,92.73
2022-12-14T14:09:41.626Z,92.64
2022-12-14T14:12:39.247Z,92.62
2022-12-14T14:16:19.044Z,92.65
2022-12-14T14:18:39.140Z,92.49
2022-12-14T14:21:42.687Z,92.59
2022-12-14T14:24:24.487Z,92.56
2022-12-14T14:27:13.936Z,92.62
2022-12-14T14:29:51.643Z,92.44
2022-12-14T14:32:37.248Z,92.51
2022-12-14T14:35:09.986Z,92.44
2022-12-14T14:37:42.075Z,92.46
2022-12-14T14:40:50.987Z,92.51
2022-12-14T14:43:30.382Z,92.48
2022-12-14T14:46:06.256Z,92.37
2022-12-14T14:48:39.772Z,92.40
2022-12-14T14:51:20.347Z,92.43
2022-12-14T14:53:51.003Z,92.35
2022-12-14T14:56:40.167Z,92.37
2022-12-14T14:59:42.152Z,92.08
2022-12-14T15:02:42.953Z,92.15
2022-12-14T15:08:20.995Z,92.04
2022-12-14T15:10:53.161Z,92.00
2022-12-14T15:13:26.917Z,91.94
2022-12-14T15:15:57.847Z,91.97
2022-12-14T15:18:32.060Z,91.91
2022-12-14T15:21:04.992Z,91.94
2022-12-14T15:23:39.499Z,91.81
2022-12-14T15:26:17.366Z,91.87
2022-12-14T15:28:50.881Z,91.77
2022-12-14T15:31:22.803Z,91.81
2022-12-14T15:33:55.356Z,91.79
2022-12-14T15:36:31.863Z,91.77
2022-12-14T15:39:02.292Z,91.79
2022-12-14T15:41:34.521Z,91.77
2022-12-14T15:44:04.532Z,91.83
2022-12-14T15:46:38.749Z,91.74
2022-12-14T15:49:24.704Z,91.72
2022-12-14T15:51:54.666Z,91.68
2022-12-14T15:54:30.383Z,91.74
2022-12-14T15:57:02.552Z,91.78
2022-12-14T15:59:34.381Z,91.76
2022-12-14T16:02:15.159Z,91.63
2022-12-14T16:04:48.330Z,91.69
2022-12-14T16:07:23.858Z,91.69
2022-12-14T16:09:57.289Z,91.61
2022-12-14T16:12:30.925Z,91.56
2022-12-14T16:15:03.094Z,91.57
2022-12-14T16:17:35.028Z,91.39
2022-12-14T16:20:22.407Z,91.29
2022-12-14T16:23:05.492Z,91.14
2022-12-14T16:25:37.689Z,91.22
2022-12-14T16:28:24.828Z,91.07
2022-12-14T16:31:00.615Z,90.99
2022-12-14T16:33:32.515Z,91.07
2022-12-14T16:36:10.732Z,90.98
2022-12-14T16:38:44.456Z,90.88
2022-12-14T16:41:14.577Z,90.86
2022-12-14T16:43:45.274Z,90.82
2022-12-14T16:46:20.302Z,90.84
2022-12-14T16:49:20.917Z,90.73
2022-12-14T16:52:08.428Z,90.68
2022-12-14T16:54:39.828Z,90.70
2022-12-14T16:57:20.437Z,90.68
2022-12-14T16:59:58.147Z,90.67
2022-12-14T17:02:33.744Z,90.63
2022-12-14T17:05:07.951Z,90.51
2022-12-14T17:07:40.960Z,90.54
2022-12-14T17:10:17.887Z,90.55
2022-12-14T17:12:48.067Z,90.47
2022-12-14T17:15:18.455Z,90.36
2022-12-14T17:17:49.675Z,90.45
2022-12-14T17:20:25.774Z,90.63
2022-12-14T17:23:00.307Z,90.50
2022-12-14T17:25:31.502Z,90.43
2022-12-14T17:28:01.256Z,90.45
2022-12-14T17:30:31.759Z,90.30
2022-12-14T17:33:02.224Z,90.36
2022-12-14T17:35:33.628Z,90.40
2022-12-14T17:38:05.992Z,90.37
2022-12-14T17:40:35.740Z,90.46
2022-12-14T17:43:05.520Z,90.39
2022-12-14T17:45:35.507Z,90.49
2022-12-14T17:48:05.205Z,90.49
2022-12-14T17:50:36.392Z,90.60
2022-12-14T17:53:08.744Z,90.70
2022-12-14T17:55:38.472Z,90.79
2022-12-14T17:58:08.229Z,90.84
2022-12-14T18:00:50.398Z,90.82
2022-12-14T18:03:21.507Z,90.90
2022-12-14T18:05:52.671Z,90.92
2022-12-14T18:08:26.619Z,91.10
2022-12-14T18:10:59.066Z,91.21
2022-12-14T18:13:31.333Z,91.23
2022-12-14T18:16:01.758Z,91.37
2022-12-14T18:18:32.124Z,91.40
2022-12-14T18:21:05.335Z,91.42
2022-12-14T18:23:37.635Z,91.60
2022-12-14T18:26:07.624Z,91.59
2022-12-14T18:28:37.563Z,91.68
2022-12-14T18:31:09.841Z,91.73
2022-12-14T18:33:39.973Z,91.89
2022-12-14T18:36:15.088Z,91.91
2022-12-14T18:38:49.487Z,91.99
2022-12-14T18:41:20.908Z,92.05
2022-12-14T18:43:51.150Z,92.05
2022-12-14T18:46:21.188Z,92.13
2022-12-14T18:48:51.147Z,92.22
2022-12-14T18:51:24.057Z,92.16
2022-12-14T18:53:58.962Z,92.22
2022-12-14T18:56:29.349Z,92.37
2022-12-14T18:59:00.529Z,92.40
2022-12-14T19:01:30.619Z,92.42
2022-12-14T19:04:00.681Z,92.42
2022-12-14T19:06:46.254Z,92.48
2022-12-14T19:09:20.240Z,92.50
2022-12-14T19:11:50.146Z,92.60
2022-12-14T19:14:20.055Z,92.62
2022-12-14T19:16:49.771Z,92.65
2022-12-14T19:19:23.081Z,92.75
2022-12-14T19:21:54.019Z,92.70
2022-12-14T19:24:26.353Z,92.71
2022-12-14T19:26:56.248Z,92.82
2022-12-14T19:29:25.964Z,92.82
2022-12-14T19:31:59.119Z,92.92
2022-12-14T19:34:33.244Z,92.93
2022-12-14T19:37:02.975Z,92.99
2022-12-14T19:39:35.364Z,92.92
2022-12-14T19:42:05.287Z,92.89
2022-12-14T19:44:36.159Z,92.94
2022-12-14T19:47:06.058Z,93.03
2022-12-14T19:49:35.845Z,93.03
2022-12-14T19:52:05.628Z,93.05
2022-12-14T19:54:39.967Z,93.02
2022-12-14T19:57:10.217Z,93.03
2022-12-14T19:59:41.145Z,93.14
2022-12-14T20:02:14.487Z,93.20
2022-12-14T20:04:44.751Z,93.14
2022-12-14T20:07:15.635Z,93.30
2022-12-14T20:09:48.216Z,93.31
2022-12-14T20:12:17.925Z,93.33
2022-12-14T20:14:49.535Z,93.42
2022-12-14T20:17:19.564Z,93.38
2022-12-14T20:19:49.479Z,93.49
2022-12-14T20:22:19.746Z,93.46
2022-12-14T20:24:52.396Z,93.54
2022-12-14T20:27:22.236Z,93.58
2022-12-14T20:29:52.259Z,93.63
2022-12-14T20:32:21.996Z,93.62
2022-12-14T20:34:51.791Z,93.67
2022-12-14T20:37:21.603Z,93.80
2022-12-14T20:39:54.081Z,93.78
2022-12-14T20:42:23.816Z,93.84
2022-12-14T20:44:53.548Z,93.95
2022-12-14T20:47:23.278Z,94.02
2022-12-14T20:49:52.975Z,94.05
2022-12-14T20:52:22.725Z,94.14
2022-12-14T20:54:55.007Z,94.16
2022-12-14T20:57:26.553Z,94.21
2022-12-14T20:59:59.182Z,94.30
2022-12-14T21:02:29.404Z,94.41
2022-12-14T21:04:59.220Z,94.47
2022-12-14T21:07:29.101Z,94.60
2022-12-14T21:10:01.492Z,94.66
2022-12-14T21:12:31.199Z,94.65
2022-12-14T21:15:00.999Z,94.79
2022-12-14T21:17:32.368Z,94.90
2022-12-14T21:20:02.317Z,94.99
2022-12-14T21:22:35.021Z,94.95
2022-12-14T21:25:08.137Z,95.16
2022-12-14T21:27:39.772Z,95.21
2022-12-14T21:30:12.499Z,95.34
2022-12-14T21:32:42.428Z,95.43
2022-12-14T21:35:17.522Z,95.45
2022-12-14T21:37:47.382Z,95.45
2022-12-14T21:40:32.096Z,95.55
2022-12-14T21:43:01.804Z,95.53
2022-12-14T21:45:31.581Z,95.59
2022-12-14T21:48:01.332Z,95.52
2022-12-14T21:50:31.083Z,95.57
2022-12-14T21:53:00.805Z,95.66
2022-12-14T21:55:33.257Z,95.68
2022-12-14T21:58:15.338Z,95.59
2022-12-14T22:00:45.233Z,95.59
2022-12-14T22:03:15.047Z,95.62
2022-12-14T22:05:44.785Z,95.66
2022-12-14T22:08:14.532Z,95.59
2022-12-14T22:10:46.915Z,95.57
2022-12-14T22:13:16.637Z,95.52
2022-12-14T22:15:46.341Z,95.51
2022-12-14T22:18:19.364Z,95.58
2022-12-14T22:20:49.066Z,95.56
2022-12-14T22:23:19.016Z,95.57
2022-12-14T22:25:54.256Z,95.62
2022-12-14T22:28:23.996Z,95.63
2022-12-14T22:30:53.796Z,95.75
2022-12-14T22:33:23.605Z,95.81
2022-12-14T22:35:53.353Z,95.73
2022-12-14T22:38:23.064Z,95.82
2022-12-14T22:40:55.577Z,95.92
2022-12-14T22:43:29.762Z,95.93
2022-12-14T22:46:03.272Z,95.99
2022-12-14T22:48:33.941Z,96.23
2022-12-14T22:51:04.819Z,96.13
2022-12-14T22:53:34.515Z,96.26
2022-12-14T22:56:15.388Z,96.37
2022-12-14T22:58:51.888Z,96.46
2022-12-14T23:01:22.512Z,96.58
2022-12-14T23:03:55.317Z,96.69
2022-12-14T23:06:25.263Z,96.74
2022-12-14T23:09:07.423Z,96.84
2022-12-14T23:11:52.177Z,97.05
2022-12-14T23:14:34.809Z,97.13
2022-12-14T23:17:17.193Z,97.25
2022-12-14T23:20:04.378Z,97.35
2022-12-14T23:22:47.294Z,97.57
2022-12-14T23:25:32.377Z,97.62
2022-12-14T23:28:17.360Z,97.76
2022-12-14T23:30:59.909Z,97.81
2022-12-14T23:33:43.244Z,97.91
2022-12-14T23:36:25.363Z,98.03
2022-12-14T23:39:07.455Z,98.14
2022-12-14T23:41:49.583Z,98.24
2022-12-14T23:44:34.287Z,98.34
2022-12-14T23:47:16.366Z,98.45
2022-12-14T23:49:58.466Z,98.56
2022-12-14T23:52:40.551Z,98.64
2022-12-14T23:55:24.157Z,98.77
2022-12-14T23:58:06.245Z,98.85
